Time;durP1;ratioP1;P1;durP2;ratioP2;P2;SDS_P1;SDS_P2;PMS_P1;PMS_P2;Temp;Humidity;BMP_temperature;BMP_pressure;BME280_temperature;BME280_humidity;BME280_pressure;Samples;Min_cycle;Max_cycle;Signal;HPM_P1;HPM_P2
2024/04/17 04:06:24;;;;;;;0.30;0.30;;;6.30;99.90;;;;;;6007337;21;20309;-62
2024/04/17 04:08:50;;;;;;;0.30;0.30;;;6.30;99.90;;;;;;5277339;27;20229;-62
2024/04/17 04:11:15;;;;;;;0.30;0.30;;;6.20;99.90;;;;;;5277888;27;20227;-63
2024/04/17 04:13:41;;;;;;;0.40;0.40;;;6.30;99.90;;;;;;5277852;27;20679;-63
2024/04/17 04:16:07;;;;;;;0.40;0.40;;;6.30;99.90;;;;;;5270077;27;20249;-63
2024/04/17 04:18:33;;;;;;;0.30;0.30;;;6.20;99.90;;;;;;5243087;27;20270;-64
2024/04/17 04:20:58;;;;;;;0.40;0.40;;;6.20;99.90;;;;;;5242010;27;20227;-64
2024/04/17 04:23:24;;;;;;;0.40;0.40;;;6.20;99.90;;;;;;5269711;27;20721;-65
2024/04/17 04:25:50;;;;;;;0.30;0.30;;;6.10;99.90;;;;;;5243312;27;20266;-63
2024/04/17 04:28:15;;;;;;;0.40;0.40;;;6.10;99.90;;;;;;5243827;27;20218;-62
2024/04/17 04:30:41;;;;;;;0.30;0.30;;;6.10;99.90;;;;;;5243597;27;20241;-62
2024/04/17 04:33:08;;;;;;;0.30;0.30;;;6.10;99.90;;;;;;5244574;27;20224;-62
2024/04/17 04:35:34;;;;;;;0.30;0.30;;;6.00;99.90;;;;;;5245959;27;20231;-62
2024/04/17 04:38:00;;;;;;;0.38;0.38;;;6.00;99.90;;;;;;5246767;27;20328;-63
2024/04/17 04:40:25;;;;;;;0.30;0.30;;;6.00;99.90;;;;;;5247152;27;20335;-63
2024/04/17 04:42:51;;;;;;;0.40;0.40;;;6.10;99.90;;;;;;5247255;27;20708;-63
2024/04/17 04:45:17;;;;;;;0.40;0.40;;;6.10;99.90;;;;;;5246776;27;20245;-63
2024/04/17 04:47:42;;;;;;;0.30;0.30;;;6.10;99.90;;;;;;5246763;27;20618;-63
2024/04/17 04:50:08;;;;;;;0.47;0.47;;;6.10;99.90;;;;;;5247237;27;20233;-65
2024/04/17 04:52:33;;;;;;;0.60;0.60;;;6.10;99.90;;;;;;5273219;27;20262;-61
2024/04/17 04:55:00;;;;;;;0.30;0.30;;;6.20;99.90;;;;;;5246599;27;20220;-63
2024/04/17 04:57:25;;;;;;;0.30;0.30;;;6.20;99.90;;;;;;5246993;27;20260;-63
2024/04/17 04:59:51;;;;;;;0.40;0.40;;;6.20;99.90;;;;;;5247067;27;20560;-63
2024/04/17 05:02:17;;;;;;;0.40;0.40;;;6.20;99.90;;;;;;5246492;27;20296;-63
2024/04/17 05:04:43;;;;;;;0.37;0.37;;;6.20;99.90;;;;;;5246190;27;20224;-64
2024/04/17 05:07:08;;;;;;;0.30;0.30;;;6.20;99.90;;;;;;5246462;27;20637;-63
2024/04/17 05:09:34;;;;;;;0.30;0.30;;;6.30;99.90;;;;;;5245075;27;20494;-62
2024/04/17 05:12:00;;;;;;;0.30;0.30;;;6.30;99.90;;;;;;5247311;27;20238;-64
2024/04/17 05:14:25;;;;;;;0.40;0.40;;;6.40;99.90;;;;;;5246224;27;20235;-63
2024/04/17 05:16:51;;;;;;;0.30;0.30;;;6.40;99.90;;;;;;5245148;27;20232;-62
2024/04/17 05:19:16;;;;;;;0.30;0.30;;;6.40;99.90;;;;;;5242184;27;20240;-62
2024/04/17 05:21:42;;;;;;;0.30;0.30;;;6.50;99.90;;;;;;5245381;27;20317;-62
2024/04/17 05:24:08;;;;;;;0.40;0.40;;;6.50;99.90;;;;;;5246325;27;20253;-61
2024/04/17 05:26:33;;;;;;;0.30;0.30;;;6.50;99.90;;;;;;5245487;27;20302;-61
2024/04/17 05:28:59;;;;;;;0.30;0.30;;;6.50;99.90;;;;;;5245446;27;21091;-62
2024/04/17 05:31:27;;;;;;;0.40;0.40;;;6.60;99.90;;;;;;5245278;27;20243;-61
2024/04/17 05:33:53;;;;;;;0.30;0.30;;;6.60;99.90;;;;;;5246272;27;20228;-62
2024/04/17 05:36:18;;;;;;;0.30;0.30;;;6.60;99.90;;;;;;5245808;27;20277;-61
2024/04/17 05:38:44;;;;;;;0.40;0.40;;;6.60;99.90;;;;;;5246274;27;20230;-62
2024/04/17 05:41:09;;;;;;;0.40;0.40;;;6.60;99.90;;;;;;5246149;27;20784;-62
2024/04/17 05:43:35;;;;;;;0.40;0.40;;;6.60;99.90;;;;;;5246336;27;20226;-62
2024/04/17 05:46:00;;;;;;;0.40;0.40;;;6.60;99.90;;;;;;5244782;27;20301;-62
2024/04/17 05:48:26;;;;;;;0.30;0.30;;;6.60;99.90;;;;;;5246141;27;20240;-62
2024/04/17 05:50:52;;;;;;;0.30;0.30;;;6.60;99.90;;;;;;5245744;27;20242;-63
2024/04/17 05:53:17;;;;;;;0.40;0.40;;;6.60;99.90;;;;;;5246850;27;20523;-63
2024/04/17 05:55:43;;;;;;;0.30;0.30;;;6.70;99.90;;;;;;5243762;27;20322;-62
2024/04/17 05:58:08;;;;;;;0.40;0.40;;;6.70;99.90;;;;;;5246087;27;20597;-62
2024/04/17 06:00:34;;;;;;;0.40;0.40;;;6.70;99.90;;;;;;5245913;27;20266;-62
2024/04/17 06:03:00;;;;;;;0.65;0.65;;;6.70;99.90;;;;;;5246020;27;20392;-63
2024/04/17 06:05:26;;;;;;;0.33;0.33;;;6.70;99.90;;;;;;5244581;27;20555;-64
2024/04/17 06:07:51;;;;;;;0.40;0.40;;;6.70;99.90;;;;;;5242906;27;20228;-67
2024/04/17 06:10:17;;;;;;;3.03;0.83;;;6.70;99.90;;;;;;5242363;27;20239;-64
2024/04/17 06:12:42;;;;;;;0.30;0.30;;;6.70;99.90;;;;;;5240770;27;20224;-65
2024/04/17 06:15:09;;;;;;;0.40;0.40;;;6.60;99.90;;;;;;5242086;27;20250;-64
2024/04/17 06:17:35;;;;;;;0.30;0.30;;;6.50;99.90;;;;;;5240563;27;20240;-65
2024/04/17 06:20:00;;;;;;;0.30;0.30;;;6.50;99.90;;;;;;5243039;27;20257;-65
2024/04/17 06:22:26;;;;;;;0.30;0.30;;;6.50;99.90;;;;;;5272389;27;20243;-64
2024/04/17 06:24:54;;;;;;;0.70;0.70;;;6.50;99.90;;;;;;5245653;27;20224;-63
2024/04/17 06:27:20;;;;;;;0.30;0.30;;;6.50;99.90;;;;;;5245645;27;20258;-62
2024/04/17 06:29:45;;;;;;;0.30;0.30;;;6.60;99.90;;;;;;5245905;27;20216;-63
2024/04/17 06:32:11;;;;;;;0.30;0.30;;;6.60;99.90;;;;;;5243850;27;20682;-63
2024/04/17 06:34:36;;;;;;;0.40;0.40;;;6.70;99.90;;;;;;5245632;27;20571;-64
2024/04/17 06:37:03;;;;;;;0.50;0.50;;;6.70;99.90;;;;;;5245544;27;20236;-63
2024/04/17 06:39:28;;;;;;;0.30;0.30;;;6.70;99.90;;;;;;5245749;27;20219;-64
2024/04/17 06:41:55;;;;;;;0.40;0.40;;;6.70;99.90;;;;;;5245863;27;20330;-64
2024/04/17 06:44:21;;;;;;;0.30;0.30;;;6.70;99.90;;;;;;5245495;27;20551;-63
2024/04/17 06:46:46;;;;;;;0.30;0.30;;;6.70;99.90;;;;;;5245418;27;20343;-64
2024/04/17 06:49:12;;;;;;;0.30;0.30;;;6.80;99.90;;;;;;5245590;27;21004;-63
2024/04/17 06:51:37;;;;;;;0.37;0.37;;;6.80;99.90;;;;;;5245450;27;20266;-64
2024/04/17 06:54:04;;;;;;;0.30;0.30;;;6.90;99.90;;;;;;5245369;27;20614;-63
2024/04/17 06:56:30;;;;;;;0.70;0.70;;;6.90;99.90;;;;;;5243622;27;20272;-63
2024/04/17 06:58:56;;;;;;;0.40;0.40;;;6.90;99.90;;;;;;5245372;27;20751;-63
2024/04/17 07:01:22;;;;;;;0.30;0.30;;;6.90;99.90;;;;;;5242201;27;20231;-64
2024/04/17 07:03:48;;;;;;;0.40;0.40;;;7.00;99.90;;;;;;5243330;27;20236;-63
2024/04/17 07:06:13;;;;;;;0.30;0.30;;;7.00;99.90;;;;;;5244790;27;20270;-63
2024/04/17 07:08:39;;;;;;;0.37;0.37;;;7.00;99.90;;;;;;5245184;27;20328;-63
2024/04/17 07:11:04;;;;;;;0.30;0.30;;;7.00;99.90;;;;;;5245286;27;20262;-62
2024/04/17 07:13:30;;;;;;;0.30;0.30;;;7.00;99.90;;;;;;5244995;27;20279;-63
2024/04/17 07:15:57;;;;;;;0.40;0.40;;;7.00;99.90;;;;;;5244616;27;20232;-62
2024/04/17 07:18:24;;;;;;;0.70;0.70;;;7.00;99.90;;;;;;5243291;27;20224;-62
2024/04/17 07:20:50;;;;;;;0.40;0.40;;;7.00;99.90;;;;;;5245727;27;20254;-62
2024/04/17 07:23:16;;;;;;;0.30;0.30;;;7.00;99.90;;;;;;5244973;27;20262;-63
2024/04/17 07:25:42;;;;;;;0.30;0.30;;;7.10;99.90;;;;;;5244896;27;20287;-61
2024/04/17 07:28:07;;;;;;;0.30;0.30;;;7.10;99.90;;;;;;5244810;27;20428;-63
2024/04/17 07:30:39;;;;;;;0.30;0.30;;;7.20;99.90;;;;;;5244917;27;20270;-62
2024/04/17 07:33:05;;;;;;;0.30;0.30;;;7.40;99.90;;;;;;5244870;27;20216;-62
2024/04/17 07:35:31;;;;;;;0.30;0.30;;;7.50;99.90;;;;;;5244345;27;20262;-62
2024/04/17 07:37:56;;;;;;;0.30;0.30;;;7.70;99.90;;;;;;5244504;27;20683;-62
2024/04/17 07:40:22;;;;;;;0.40;0.40;;;7.80;99.90;;;;;;5244688;27;20262;-63
2024/04/17 07:42:48;;;;;;;0.30;0.30;;;7.90;99.90;;;;;;5244531;27;20626;-63
2024/04/17 07:45:13;;;;;;;0.30;0.30;;;7.90;99.90;;;;;;5244446;27;20220;-61
2024/04/17 07:47:40;;;;;;;0.73;0.73;;;7.90;99.90;;;;;;5244605;27;20615;-62
2024/04/17 07:50:06;;;;;;;1.15;0.85;;;7.90;99.90;;;;;;5244397;27;20275;-63
2024/04/17 07:52:31;;;;;;;0.40;0.40;;;7.90;99.90;;;;;;5244317;27;20266;-63
2024/04/17 07:54:57;;;;;;;0.30;0.30;;;7.90;99.90;;;;;;5244513;27;20482;-63
2024/04/17 07:57:23;;;;;;;0.40;0.40;;;7.80;99.90;;;;;;5244517;27;20601;-62
2024/04/17 07:59:48;;;;;;;0.30;0.30;;;7.80;99.90;;;;;;5244237;27;20236;-62
2024/04/17 08:02:14;;;;;;;0.30;0.30;;;7.80;99.90;;;;;;5244419;27;20682;-62
2024/04/17 08:04:40;;;;;;;0.40;0.40;;;7.80;99.90;;;;;;5244393;27;20228;-65
2024/04/17 08:07:06;;;;;;;0.30;0.30;;;7.90;99.90;;;;;;5243747;27;20271;-62
2024/04/17 08:09:31;;;;;;;0.40;0.40;;;7.90;99.90;;;;;;5246835;27;20456;-62
2024/04/17 08:11:57;;;;;;;0.30;0.30;;;8.00;99.90;;;;;;5247473;27;20330;-62
2024/04/17 08:14:23;;;;;;;0.30;0.30;;;8.10;99.90;;;;;;5247461;27;20223;-62
2024/04/17 08:16:48;;;;;;;0.30;0.30;;;8.20;99.90;;;;;;5246812;27;20236;-62
2024/04/17 08:19:14;;;;;;;0.30;0.30;;;8.30;99.90;;;;;;5245657;27;20266;-62
2024/04/17 08:21:40;;;;;;;0.30;0.30;;;8.40;99.90;;;;;;5247601;27;20595;-64
2024/04/17 08:24:06;;;;;;;0.30;0.30;;;8.40;99.90;;;;;;5248397;27;20232;-65
2024/04/17 08:26:31;;;;;;;0.30;0.30;;;8.30;99.90;;;;;;5246928;27;20239;-65
2024/04/17 08:28:57;;;;;;;0.30;0.30;;;8.20;99.90;;;;;;5246738;27;20507;-64
2024/04/17 08:31:22;;;;;;;0.30;0.30;;;8.00;99.90;;;;;;5245231;27;20290;-62
2024/04/17 08:33:48;;;;;;;0.63;0.63;;;7.70;99.90;;;;;;5247310;27;20557;-63
2024/04/17 08:36:13;;;;;;;0.30;0.30;;;7.60;99.90;;;;;;5246536;27;20329;-63
2024/04/17 08:38:41;;;;;;;0.47;0.47;;;7.60;99.90;;;;;;5246934;27;20224;-63
2024/04/17 08:41:07;;;;;;;0.30;0.30;;;7.50;99.90;;;;;;5245323;27;20224;-63
2024/04/17 08:43:38;;;;;;;0.30;0.30;;;7.50;99.90;;;;;;5247023;27;20322;-63
2024/04/17 08:46:05;;;;;;;0.30;0.30;;;7.50;99.90;;;;;;5246626;27;20227;-63
2024/04/17 08:48:32;;;;;;;0.30;0.30;;;7.50;99.90;;;;;;5247044;27;20228;-63
2024/04/17 08:50:58;;;;;;;0.40;0.40;;;7.60;99.90;;;;;;5246834;27;20220;-63
2024/04/17 08:53:26;;;;;;;0.30;0.30;;;7.70;99.90;;;;;;5246856;27;20263;-62
2024/04/17 08:55:52;;;;;;;0.30;0.30;;;7.90;99.90;;;;;;5245867;27;20318;-62
2024/04/17 08:58:18;;;;;;;0.30;0.30;;;8.10;99.90;;;;;;5246790;27;20227;-63
2024/04/17 09:00:49;;;;;;;0.40;0.40;;;8.30;99.90;;;;;;5246442;27;20683;-64
2024/04/17 09:03:19;;;;;;;0.30;0.30;;;8.40;99.90;;;;;;5246551;27;20267;-63
2024/04/17 09:05:45;;;;;;;0.30;0.30;;;8.60;99.90;;;;;;5246367;27;20225;-63
2024/04/17 09:08:12;;;;;;;0.30;0.30;;;8.70;99.90;;;;;;5244547;27;20255;-62
2024/04/17 09:10:39;;;;;;;0.30;0.30;;;8.90;99.90;;;;;;5246936;27;20217;-62
2024/04/17 09:13:05;;;;;;;0.30;0.30;;;8.90;99.90;;;;;;5246813;27;20258;-61
2024/04/17 09:15:30;;;;;;;0.30;0.30;;;8.80;99.90;;;;;;5245693;27;20480;-61
2024/04/17 09:17:59;;;;;;;0.30;0.30;;;8.40;99.90;;;;;;5272730;27;20467;-61
2024/04/17 09:20:24;;;;;;;0.30;0.30;;;8.10;99.90;;;;;;5245285;27;20389;-63
2024/04/17 09:22:52;;;;;;;0.50;0.50;;;7.90;99.90;;;;;;5246594;27;20232;-63
2024/04/17 09:25:19;;;;;;;0.30;0.30;;;7.70;99.90;;;;;;5245962;27;20259;-63
2024/04/17 09:27:46;;;;;;;0.30;0.30;;;7.60;99.90;;;;;;5246510;27;20276;-64
2024/04/17 09:30:12;;;;;;;0.93;0.93;;;7.50;99.90;;;;;;5246215;27;20259;-64
2024/04/17 09:32:38;;;;;;;0.30;0.30;;;7.50;99.90;;;;;;5246304;27;20220;-62
2024/04/17 09:35:11;;;;;;;0.40;0.40;;;7.40;99.90;;;;;;5246044;27;20687;-62
2024/04/17 09:37:38;;;;;;;0.30;0.30;;;7.30;99.90;;;;;;5245975;27;20235;-64
2024/04/17 09:40:04;;;;;;;0.30;0.30;;;7.20;99.90;;;;;;5246121;27;20228;-65
2024/04/17 09:42:31;;;;;;;0.30;0.30;;;7.10;99.90;;;;;;5246340;27;20752;-65
2024/04/17 09:45:00;;;;;;;0.30;0.30;;;6.80;99.90;;;;;;5246050;27;20371;-66
2024/04/17 09:47:28;;;;;;;0.43;0.43;;;6.60;99.90;;;;;;5246381;27;20230;-65
2024/04/17 09:50:01;;;;;;;0.30;0.30;;;6.30;99.90;;;;;;5245992;27;20227;-65
2024/04/17 09:52:28;;;;;;;0.50;0.50;;;6.20;99.90;;;;;;5246098;27;20219;-64
2024/04/17 09:54:55;;;;;;;0.40;0.40;;;6.10;99.90;;;;;;5245932;27;20279;-63
2024/04/17 09:57:22;;;;;;;0.30;0.30;;;6.10;99.90;;;;;;5245554;27;20235;-65
2024/04/17 09:59:49;;;;;;;0.40;0.40;;;6.10;99.90;;;;;;5246192;27;20223;-65
2024/04/17 10:02:16;;;;;;;0.40;0.40;;;6.00;99.90;;;;;;5246177;27;20231;-64
2024/04/17 10:04:43;;;;;;;0.40;0.40;;;6.00;99.90;;;;;;5245355;27;20228;-65
2024/04/17 10:07:13;;;;;;;0.40;0.40;;;6.10;99.90;;;;;;5245585;27;20271;-65
2024/04/17 10:09:42;;;;;;;0.40;0.40;;;6.30;99.90;;;;;;5246325;27;20216;-65
2024/04/17 10:12:11;;;;;;;0.40;0.40;;;6.40;99.90;;;;;;5245950;27;20269;-66
2024/04/17 10:14:38;;;;;;;0.40;0.40;;;6.60;99.90;;;;;;5244298;27;20309;-65
2024/04/17 10:17:06;;;;;;;0.30;0.30;;;6.80;99.90;;;;;;5245624;27;20232;-66
2024/04/17 10:19:32;;;;;;;0.30;0.30;;;7.00;99.90;;;;;;5245761;27;20235;-65
2024/04/17 10:21:58;;;;;;;0.30;0.30;;;7.20;99.90;;;;;;5245653;27;20216;-66
2024/04/17 10:24:23;;;;;;;0.37;0.37;;;7.40;99.90;;;;;;5245704;27;20504;-64
2024/04/17 10:26:51;;;;;;;0.30;0.30;;;7.60;99.90;;;;;;5245487;27;20237;-65
2024/04/17 10:29:27;;;;;;;0.40;0.40;;;7.90;99.90;;;;;;5245979;27;20228;-64
2024/04/17 10:32:02;;;;;;;0.40;0.40;;;8.10;99.90;;;;;;5245052;27;20231;-65
2024/04/17 10:34:42;;;;;;;0.30;0.30;;;8.40;99.90;;;;;;5245740;27;20228;-65
2024/04/17 10:37:09;;;;;;;0.40;0.40;;;8.60;99.90;;;;;;5245225;27;20327;-64
2024/04/17 10:39:37;;;;;;;0.30;0.30;;;8.80;99.90;;;;;;5245441;27;20287;-65
2024/04/17 10:42:04;;;;;;;0.30;0.30;;;9.10;99.90;;;;;;5245487;27;20579;-64
2024/04/17 10:44:34;;;;;;;0.30;0.30;;;9.40;99.90;;;;;;5245259;27;20218;-64
2024/04/17 10:47:02;;;;;;;0.30;0.30;;;9.70;99.90;;;;;;5245186;27;20466;-63
2024/04/17 10:49:27;;;;;;;0.50;0.50;;;9.90;99.90;;;;;;5245856;27;20946;-63
2024/04/17 10:51:54;;;;;;;0.33;0.33;;;10.10;99.90;;;;;;5243640;27;20586;-63
2024/04/17 10:54:21;;;;;;;0.30;0.30;;;10.30;99.90;;;;;;5245261;27;20441;-63
2024/04/17 10:56:46;;;;;;;0.63;0.63;;;10.50;99.90;;;;;;5244968;27;20435;-64
2024/04/17 10:59:12;;;;;;;0.47;0.47;;;10.50;99.90;;;;;;5271757;27;20527;-64
2024/04/17 11:01:38;;;;;;;0.40;0.40;;;10.60;99.90;;;;;;5245235;27;20261;-62
2024/04/17 11:04:04;;;;;;;0.30;0.30;;;10.70;99.90;;;;;;5244898;27;20231;-64
2024/04/17 11:06:29;;;;;;;0.30;0.30;;;10.70;99.90;;;;;;5244805;27;20524;-63
2024/04/17 11:08:55;;;;;;;0.30;0.30;;;11.00;99.90;;;;;;5245052;27;20275;-62
2024/04/17 11:11:21;;;;;;;0.30;0.30;;;11.30;99.90;;;;;;5243171;27;20272;-62
2024/04/17 11:13:47;;;;;;;0.30;0.30;;;11.60;99.90;;;;;;5242915;27;20231;-62
2024/04/17 11:16:13;;;;;;;0.30;0.30;;;11.90;99.90;;;;;;5242454;27;20536;-63
2024/04/17 11:18:41;;;;;;;0.30;0.30;;;12.10;99.90;;;;;;5244637;27;20345;-63
2024/04/17 11:21:08;;;;;;;0.30;0.30;;;12.10;99.90;;;;;;5242436;27;20509;-63
2024/04/17 11:23:42;;;;;;;0.30;0.30;;;12.30;99.90;;;;;;5244505;27;20457;-63
2024/04/17 11:26:08;;;;;;;0.30;0.30;;;12.40;99.90;;;;;;5242283;27;20872;-63
2024/04/17 11:28:34;;;;;;;0.30;0.30;;;12.50;99.90;;;;;;5244572;27;20450;-62
2024/04/17 11:30:59;;;;;;;0.40;0.40;;;12.60;99.90;;;;;;5244697;27;20996;-63
2024/04/17 11:33:29;;;;;;;0.30;0.20;;;12.70;99.90;;;;;;5244526;27;20354;-62
2024/04/17 11:36:15;;;;;;;0.30;0.30;;;12.60;99.90;;;;;;5244055;27;20567;-62
2024/04/17 11:38:44;;;;;;;0.30;0.30;;;12.50;99.90;;;;;;5244404;27;20574;-62
2024/04/17 11:41:13;;;;;;;0.30;0.30;;;12.50;99.90;;;;;;5244480;27;20498;-63
2024/04/17 11:43:40;;;;;;;0.30;0.30;;;12.40;99.90;;;;;;5243387;27;20977;-63
2024/04/17 11:46:07;;;;;;;0.30;0.30;;;12.30;99.90;;;;;;5244032;27;20449;-62
2024/04/17 11:48:32;;;;;;;0.40;0.30;;;12.30;99.90;;;;;;5244317;27;20453;-60
2024/04/17 11:50:58;;;;;;;2.73;1.13;;;12.30;99.90;;;;;;5244058;27;20468;-61
2024/04/17 11:53:24;;;;;;;0.30;0.30;;;12.30;99.90;;;;;;5242734;27;20225;-61
2024/04/17 11:55:50;;;;;;;0.30;0.30;;;12.50;99.90;;;;;;5244001;27;20386;-61
2024/04/17 11:58:16;;;;;;;0.30;0.30;;;12.70;99.90;;;;;;5244075;27;20268;-61
2024/04/17 12:00:43;;;;;;;0.30;0.30;;;12.90;99.90;;;;;;5244083;27;20501;-62
2024/04/17 12:03:09;;;;;;;0.30;0.30;;;13.20;99.90;;;;;;5244297;27;20231;-62
2024/04/17 12:05:34;;;;;;;0.40;0.40;;;13.30;99.90;;;;;;5243859;27;20489;-61
2024/04/17 12:08:00;;;;;;;0.40;0.40;;;13.40;99.90;;;;;;5243568;27;20235;-61
2024/04/17 12:10:26;;;;;;;1.20;1.20;;;13.20;99.90;;;;;;5272750;27;20240;-63
2024/04/17 12:12:51;;;;;;;0.30;0.30;;;12.80;99.90;;;;;;5248350;27;20544;-61
2024/04/17 12:15:17;;;;;;;0.30;0.30;;;12.30;99.90;;;;;;5277257;27;20220;-62
2024/04/17 12:17:42;;;;;;;0.40;0.40;;;11.80;99.90;;;;;;5277860;27;20235;-62
2024/04/17 12:20:08;;;;;;;0.30;0.30;;;11.50;99.90;;;;;;5277955;27;20257;-62
2024/04/17 12:22:34;;;;;;;0.30;0.30;;;11.30;99.90;;;;;;5277831;27;20223;-60
2024/04/17 12:27:45;;;;;;;0.40;0.40;;;11.10;99.90;;;;;;5277222;27;20265;-63
2024/04/17 12:30:11;;;;;;;0.30;0.30;;;11.20;99.90;;;;;;5277524;27;20438;-61
2024/04/17 12:32:36;;;;;;;0.30;0.30;;;11.20;99.90;;;;;;5277609;27;20454;-62
2024/04/17 12:35:03;;;;;;;2.20;1.37;;;11.20;99.90;;;;;;5276859;27;20257;-63
2024/04/17 12:37:29;;;;;;;0.30;0.30;;;11.00;99.90;;;;;;5277419;27;20227;-63
2024/04/17 12:39:55;;;;;;;0.40;0.40;;;11.10;99.90;;;;;;5277271;27;20857;-64
2024/04/17 12:42:22;;;;;;;0.30;0.30;;;11.20;99.90;;;;;;5277462;27;20305;-62
2024/04/17 12:44:48;;;;;;;0.30;0.30;;;11.40;99.90;;;;;;5276850;27;20554;-63
2024/04/17 12:47:14;;;;;;;0.30;0.30;;;11.50;99.90;;;;;;5277039;27;20593;-63
2024/04/17 12:49:39;;;;;;;0.30;0.30;;;11.70;99.90;;;;;;5277224;27;20971;-63
2024/04/17 12:52:05;;;;;;;0.30;0.30;;;11.80;99.90;;;;;;5277346;27;20223;-63
2024/04/17 12:54:30;;;;;;;0.30;0.30;;;11.80;99.90;;;;;;5278750;27;20227;-62
2024/04/17 12:56:56;;;;;;;0.30;0.30;;;11.80;99.90;;;;;;5280678;27;20235;-63
2024/04/17 12:59:21;;;;;;;0.30;0.30;;;11.80;99.90;;;;;;5280387;27;20326;-63
2024/04/17 13:01:47;;;;;;;0.30;0.30;;;12.00;99.90;;;;;;5280426;27;20673;-64
2024/04/17 13:04:12;;;;;;;0.30;0.30;;;12.20;99.90;;;;;;5280408;27;20307;-63
2024/04/17 13:06:38;;;;;;;0.40;0.40;;;12.40;99.90;;;;;;5279903;27;20258;-63
2024/04/17 13:09:03;;;;;;;0.30;0.30;;;12.70;99.90;;;;;;5280660;27;20333;-63
2024/04/17 13:11:29;;;;;;;0.30;0.30;;;12.90;99.90;;;;;;5280565;27;20267;-63
2024/04/17 13:13:56;;;;;;;0.30;0.30;;;13.20;99.70;;;;;;5280211;27;20220;-64
2024/04/17 13:16:22;;;;;;;0.80;0.80;;;13.30;99.80;;;;;;5280072;27;20329;-63
2024/04/17 13:18:48;;;;;;;0.30;0.30;;;13.30;98.20;;;;;;5280597;27;20427;-63
2024/04/17 13:21:16;;;;;;;0.30;0.30;;;13.40;97.90;;;;;;5280472;27;20329;-64
2024/04/17 13:23:41;;;;;;;0.30;0.20;;;13.20;96.80;;;;;;5280003;27;20589;-63
2024/04/17 13:26:07;;;;;;;0.30;0.30;;;13.00;97.90;;;;;;5280773;27;20454;-63
2024/04/17 13:28:33;;;;;;;0.40;0.40;;;13.00;97.90;;;;;;5280209;27;20459;-61
2024/04/17 13:31:05;;;;;;;0.30;0.30;;;13.00;97.20;;;;;;5280116;27;20380;-61
2024/04/17 13:33:32;;;;;;;0.30;0.30;;;13.00;96.70;;;;;;5280387;27;20487;-63
2024/04/17 13:36:02;;;;;;;0.30;0.30;;;12.90;97.30;;;;;;5279665;27;20450;-62
2024/04/17 13:38:29;;;;;;;0.30;0.30;;;12.90;97.50;;;;;;5281230;27;20786;-63
2024/04/17 13:41:04;;;;;;;0.33;0.33;;;12.90;96.20;;;;;;5280083;27;20778;-63
2024/04/17 13:43:30;;;;;;;0.30;0.30;;;12.90;96.60;;;;;;5279935;27;20577;-62
2024/04/17 13:45:57;;;;;;;0.30;0.30;;;12.80;97.00;;;;;;5278143;27;20465;-62
2024/04/17 13:48:23;;;;;;;0.60;0.60;;;12.80;96.40;;;;;;5280174;27;20430;-64
2024/04/17 13:51:02;;;;;;;0.40;0.40;;;12.80;95.90;;;;;;5280129;27;20503;-64
2024/04/17 13:53:28;;;;;;;0.30;0.30;;;12.80;97.20;;;;;;5279633;27;20637;-63
2024/04/17 13:55:53;;;;;;;0.30;0.30;;;12.80;97.10;;;;;;5279455;27;20570;-63
2024/04/17 13:58:20;;;;;;;0.40;0.40;;;12.90;97.00;;;;;;5277834;27;20246;-63
2024/04/17 14:00:46;;;;;;;0.33;0.33;;;13.00;97.40;;;;;;5279997;27;20265;-63
2024/04/17 14:03:11;;;;;;;0.30;0.30;;;13.00;98.20;;;;;;5279812;27;20450;-61
2024/04/17 14:05:38;;;;;;;0.30;0.30;;;13.00;97.20;;;;;;5278848;27;20219;-61
2024/04/17 14:08:05;;;;;;;0.50;0.50;;;13.00;97.20;;;;;;5279559;27;20403;-63
2024/04/17 14:10:32;;;;;;;0.30;0.30;;;13.00;97.30;;;;;;5279625;27;20566;-62
2024/04/17 14:12:57;;;;;;;0.30;0.30;;;12.90;98.00;;;;;;5280027;27;20458;-63
2024/04/17 14:15:23;;;;;;;0.30;0.30;;;12.80;98.10;;;;;;5279372;27;20876;-63
2024/04/17 14:17:49;;;;;;;0.30;0.30;;;12.80;98.20;;;;;;5279968;27;20311;-62
2024/04/17 14:20:15;;;;;;;0.47;0.40;;;12.80;97.40;;;;;;5279578;27;20262;-62
2024/04/17 14:22:41;;;;;;;0.50;0.50;;;12.80;97.00;;;;;;5279436;27;20230;-63
2024/04/17 14:25:07;;;;;;;0.30;0.30;;;12.70;95.70;;;;;;5279381;27;20455;-68
2024/04/17 14:27:32;;;;;;;0.30;0.30;;;12.80;96.10;;;;;;5281550;27;20336;-63
2024/04/17 14:29:58;;;;;;;0.30;0.30;;;12.90;97.10;;;;;;5279692;27;20454;-63
2024/04/17 14:32:24;;;;;;;0.30;0.30;;;13.00;97.50;;;;;;5279657;27;20337;-63
2024/04/17 14:34:49;;;;;;;0.67;0.67;;;13.20;96.90;;;;;;5278924;27;20263;-61
2024/04/17 14:37:15;;;;;;;0.30;0.30;;;13.30;96.00;;;;;;5278546;27;20617;-62
2024/04/17 14:39:40;;;;;;;0.30;0.30;;;13.40;96.30;;;;;;5277146;27;20228;-62
2024/04/17 14:42:07;;;;;;;0.30;0.30;;;13.20;96.00;;;;;;5279208;27;20216;-62
2024/04/17 14:44:34;;;;;;;0.30;0.30;;;13.20;96.50;;;;;;5279352;27;20231;-63
2024/04/17 14:46:59;;;;;;;1.13;0.83;;;13.20;95.60;;;;;;5279254;27;20544;-64
2024/04/17 14:49:25;;;;;;;0.30;0.30;;;13.10;96.40;;;;;;5279370;27;20463;-64
2024/04/17 14:51:51;;;;;;;0.30;0.30;;;13.00;96.50;;;;;;5279245;27;20227;-62
2024/04/17 14:54:16;;;;;;;0.30;0.30;;;12.90;96.90;;;;;;5277411;27;21127;-63
2024/04/17 14:56:42;;;;;;;0.30;0.30;;;12.80;96.10;;;;;;5278902;27;20230;-62
2024/04/17 14:59:08;;;;;;;0.30;0.30;;;12.80;95.40;;;;;;5279047;27;20222;-64
2024/04/17 15:01:34;;;;;;;0.30;0.30;;;12.60;93.90;;;;;;5277372;27;20308;-62
2024/04/17 15:04:00;;;;;;;0.33;0.33;;;12.50;94.60;;;;;;5278845;27;20226;-63
2024/04/17 15:06:26;;;;;;;0.30;0.30;;;12.40;95.30;;;;;;5278306;27;20582;-62
2024/04/17 15:08:52;;;;;;;0.40;0.40;;;12.40;95.70;;;;;;5278870;27;20503;-63
2024/04/17 15:11:18;;;;;;;0.30;0.30;;;12.30;96.40;;;;;;5278524;27;20218;-63
2024/04/17 15:13:43;;;;;;;0.30;0.30;;;12.30;96.00;;;;;;5278738;27;20513;-64
2024/04/17 15:16:10;;;;;;;0.30;0.30;;;12.30;95.80;;;;;;5278186;27;20226;-62
2024/04/17 15:18:36;;;;;;;0.30;0.30;;;12.20;95.30;;;;;;5277260;27;20261;-64
2024/04/17 15:21:03;;;;;;;0.30;0.30;;;12.20;95.40;;;;;;5278597;27;20537;-63
2024/04/17 15:23:30;;;;;;;0.30;0.20;;;12.10;96.20;;;;;;5277941;27;20283;-63
2024/04/17 15:26:01;;;;;;;0.30;0.30;;;12.10;95.70;;;;;;5276638;27;20486;-63
2024/04/17 15:28:27;;;;;;;0.30;0.30;;;12.10;95.90;;;;;;5276677;27;20462;-62
2024/04/17 15:31:07;;;;;;;0.30;0.30;;;11.90;96.70;;;;;;5278260;27;20435;-63
2024/04/17 15:33:34;;;;;;;0.33;0.33;;;11.90;96.90;;;;;;5278230;27;20505;-63
2024/04/17 15:36:01;;;;;;;0.30;0.30;;;11.90;97.10;;;;;;5277848;27;20509;-63
2024/04/17 15:38:28;;;;;;;0.30;0.30;;;11.80;96.40;;;;;;5276642;27;20975;-63
2024/04/17 15:40:58;;;;;;;0.30;0.30;;;11.70;96.20;;;;;;5278426;27;20835;-62
2024/04/17 15:43:25;;;;;;;0.30;0.30;;;11.50;96.10;;;;;;5278368;26;20796;-62
2024/04/17 15:45:51;;;;;;;0.30;0.30;;;11.40;97.00;;;;;;5276911;27;20839;-62
2024/04/17 15:48:20;;;;;;;0.30;0.30;;;11.30;96.40;;;;;;5277189;27;20488;-61
2024/04/17 15:50:47;;;;;;;0.30;0.30;;;11.10;96.60;;;;;;5245674;27;20570;-63
2024/04/17 15:53:13;;;;;;;0.90;0.90;;;10.80;96.60;;;;;;5244071;27;20513;-62
2024/04/17 15:55:38;;;;;;;0.40;0.40;;;10.60;96.30;;;;;;5244084;27;20477;-65
2024/04/17 15:58:04;;;;;;;0.30;0.30;;;10.40;95.50;;;;;;5244643;27;20225;-64
2024/04/17 16:00:29;;;;;;;0.30;0.30;;;10.10;95.00;;;;;;5243381;27;20229;-65
2024/04/17 16:02:55;;;;;;;0.30;0.30;;;9.80;98.60;;;;;;5243215;27;20226;-64
2024/04/17 16:05:20;;;;;;;0.30;0.30;;;9.60;99.90;;;;;;5243641;27;20225;-64
2024/04/17 16:07:47;;;;;;;0.30;0.30;;;9.40;99.90;;;;;;5243989;27;20691;-64
2024/04/17 16:10:12;;;;;;;0.30;0.30;;;9.40;99.30;;;;;;5244101;27;20599;-64
2024/04/17 16:12:38;;;;;;;0.37;0.37;;;9.40;97.70;;;;;;5244018;27;20331;-65
2024/04/17 16:15:05;;;;;;;0.30;0.30;;;9.30;98.20;;;;;;5243542;27;20232;-64
2024/04/17 16:17:30;;;;;;;0.30;0.30;;;9.20;99.90;;;;;;5243797;27;20229;-63
2024/04/17 16:19:56;;;;;;;0.30;0.30;;;9.20;99.90;;;;;;5243921;27;20605;-69
2024/04/17 16:22:22;;;;;;;0.30;0.30;;;9.00;99.90;;;;;;5243885;27;20219;-67
2024/04/17 16:24:47;;;;;;;0.30;0.30;;;8.90;99.90;;;;;;5243532;27;20335;-68
2024/04/17 16:27:13;;;;;;;0.30;0.30;;;8.90;99.90;;;;;;5244104;27;20323;-65
2024/04/17 16:29:41;;;;;;;0.30;0.30;;;8.80;99.90;;;;;;5245523;27;20220;-66
2024/04/17 16:32:07;;;;;;;0.30;0.30;;;8.80;99.90;;;;;;5247365;27;20229;-62
2024/04/17 16:34:33;;;;;;;0.30;0.30;;;8.70;99.90;;;;;;5247197;27;20265;-63
2024/04/17 16:37:02;;;;;;;0.40;0.40;;;8.50;99.90;;;;;;5246429;27;20232;-65
2024/04/17 16:39:27;;;;;;;0.40;0.40;;;8.30;99.90;;;;;;5247009;27;20216;-65
2024/04/17 16:41:53;;;;;;;0.60;0.60;;;8.20;99.90;;;;;;5247122;27;20322;-66
2024/04/17 16:44:18;;;;;;;0.30;0.30;;;8.00;99.90;;;;;;5245014;27;20227;-63
2024/04/17 16:46:44;;;;;;;0.30;0.30;;;7.80;99.90;;;;;;5246631;27;20311;-63
2024/04/17 16:49:10;;;;;;;0.40;0.40;;;7.70;99.90;;;;;;5246630;27;20593;-63
2024/04/17 16:51:35;;;;;;;0.30;0.30;;;7.60;99.90;;;;;;5246878;27;20307;-64
2024/04/17 16:54:01;;;;;;;0.30;0.30;;;7.40;99.90;;;;;;5246310;27;20321;-64
2024/04/17 16:56:27;;;;;;;0.40;0.40;;;7.30;99.90;;;;;;5246161;27;20275;-63